createdAt,value
2022-11-24T00:00:22.393Z,100538.47
2022-11-24T00:02:49.975Z,100558.31
2022-11-24T00:05:17.303Z,100556.44
2022-11-24T00:07:45.240Z,100547.53
2022-11-24T00:10:12.552Z,100553.91
2022-11-24T00:12:39.841Z,100549.50
2022-11-24T00:15:07.610Z,100546.81
2022-11-24T00:17:35.063Z,100534.06
2022-11-24T00:20:02.451Z,100526.97
2022-11-24T00:22:29.680Z,100527.84
2022-11-24T00:24:56.932Z,100536.69
2022-11-24T00:27:24.152Z,100536.84
2022-11-24T00:29:51.501Z,100537.13
2022-11-24T00:32:19.286Z,100542.22
2022-11-24T00:34:47.263Z,100541.25
2022-11-24T00:37:14.965Z,100548.19
2022-11-24T00:39:43.140Z,100539.53
2022-11-24T00:42:11.256Z,100549.59
2022-11-24T00:44:38.726Z,100540.44
2022-11-24T00:47:06.966Z,100541.16
2022-11-24T00:49:36.115Z,100538.50
2022-11-24T00:52:03.531Z,100526.47
2022-11-24T00:54:33.348Z,100539.94
2022-11-24T01:00:42.460Z,100549.06
2022-11-24T01:03:09.959Z,100550.16
2022-11-24T01:05:37.991Z,100553.50
2022-11-24T01:08:25.305Z,100560.81
2022-11-24T01:10:53.135Z,100569.59
2022-11-24T01:17:24.459Z,100587.34
2022-11-24T01:19:51.708Z,100591.78
2022-11-24T01:22:18.935Z,100603.31
2022-11-24T01:24:46.518Z,100618.28
2022-11-24T01:27:14.351Z,100622.06
2022-11-24T01:29:41.616Z,100630.72
2022-11-24T01:32:09.310Z,100639.31
2022-11-24T01:34:36.600Z,100662.94
2022-11-24T01:37:04.027Z,100663.53
2022-11-24T01:39:31.323Z,100664.31
2022-11-24T01:42:01.547Z,100676.69
2022-11-24T01:44:31.631Z,100669.53
2022-11-24T01:47:22.211Z,100672.78
2022-11-24T01:49:55.811Z,100674.84
2022-11-24T01:52:30.153Z,100685.31
2022-11-24T01:55:09.585Z,100689.47
2022-11-24T01:57:42.612Z,100691.31
2022-11-24T02:00:12.812Z,100707.00
2022-11-24T02:02:45.267Z,100702.91
2022-11-24T02:05:25.058Z,100706.28
2022-11-24T02:07:56.028Z,100712.03
2022-11-24T02:10:45.400Z,100705.66
2022-11-24T02:13:14.772Z,100703.13
2022-11-24T02:20:00.750Z,100707.22
2022-11-24T02:22:40.078Z,100699.44
2022-11-24T02:25:25.641Z,100697.00
2022-11-24T02:27:54.632Z,100707.31
2022-11-24T02:30:22.855Z,100701.78
2022-11-24T02:32:50.737Z,100704.47
2022-11-24T02:35:18.324Z,100708.44
2022-11-24T02:37:45.800Z,100710.06
2022-11-24T02:40:16.229Z,100712.13
2022-11-24T02:42:46.496Z,100707.91
2022-11-24T02:45:16.191Z,100709.16
2022-11-24T02:47:43.903Z,100707.50
2022-11-24T02:50:11.623Z,100705.69
2022-11-24T02:52:38.923Z,100710.34
2022-11-24T02:55:06.525Z,100711.75
2022-11-24T02:57:33.783Z,100715.53
2022-11-24T03:00:21.012Z,100716.53
2022-11-24T03:02:48.467Z,100723.75
2022-11-24T03:05:16.194Z,100708.44
2022-11-24T03:07:43.831Z,100711.50
2022-11-24T03:10:11.174Z,100711.44
2022-11-24T03:12:38.439Z,100720.31
2022-11-24T03:15:06.757Z,100716.72
2022-11-24T03:17:34.000Z,100718.63
2022-11-24T03:20:04.882Z,100719.50
2022-11-24T03:22:34.663Z,100717.97
2022-11-24T03:25:01.963Z,100717.75
2022-11-24T03:27:30.734Z,100724.81
2022-11-24T03:29:57.988Z,100722.28
2022-11-24T03:32:25.521Z,100730.75
2022-11-24T03:34:52.794Z,100722.28
2022-11-24T03:37:20.082Z,100718.53
2022-11-24T03:39:47.436Z,100708.59
2022-11-24T03:42:14.806Z,100715.28
2022-11-24T03:44:42.382Z,100713.59
2022-11-24T03:47:11.483Z,100715.38
2022-11-24T03:49:40.194Z,100719.59
2022-11-24T03:52:08.452Z,100716.97
2022-11-24T03:54:35.984Z,100736.34
2022-11-24T03:57:03.589Z,100718.72
2022-11-24T03:59:30.916Z,100725.22
2022-11-24T04:01:58.651Z,100737.50
2022-11-24T04:04:26.362Z,100728.66
2022-11-24T04:06:53.596Z,100730.38
2022-11-24T04:09:20.948Z,100746.19
2022-11-24T04:12:06.855Z,100752.41
2022-11-24T04:14:34.967Z,100755.78
2022-11-24T04:17:04.254Z,100756.03
2022-11-24T04:19:31.462Z,100758.66
2022-11-24T04:21:58.731Z,100761.13
2022-11-24T04:24:26.012Z,100754.19
2022-11-24T04:26:53.274Z,100761.81
2022-11-24T04:29:20.479Z,100766.81
2022-11-24T04:31:48.749Z,100786.00
2022-11-24T04:34:16.184Z,100795.50
2022-11-24T04:36:43.587Z,100799.09
2022-11-24T04:39:23.989Z,100796.28
2022-11-24T04:41:54.751Z,100801.09
2022-11-24T04:44:22.193Z,100797.34
2022-11-24T04:46:49.543Z,100795.41
2022-11-24T04:49:17.021Z,100804.56
2022-11-24T04:51:44.323Z,100808.56
2022-11-24T04:54:13.527Z,100812.41
2022-11-24T04:56:42.625Z,100820.00
2022-11-24T04:59:16.047Z,100815.66
2022-11-24T05:01:45.082Z,100822.94
2022-11-24T05:04:14.532Z,100821.97
2022-11-24T05:06:42.499Z,100829.66
2022-11-24T05:09:16.121Z,100828.22
2022-11-24T05:11:45.375Z,100835.22
2022-11-24T05:14:12.678Z,100833.59
2022-11-24T05:16:40.694Z,100849.81
2022-11-24T05:19:08.414Z,100852.16
2022-11-24T05:21:36.387Z,100853.50
2022-11-24T05:24:04.395Z,100856.59
2022-11-24T05:26:31.666Z,100856.72
2022-11-24T05:28:58.947Z,100860.16
2022-11-24T05:35:09.649Z,100870.88
2022-11-24T05:37:37.907Z,100882.31
2022-11-24T05:40:06.903Z,100880.75
2022-11-24T05:42:46.148Z,100880.19
2022-11-24T05:45:20.099Z,100875.53
2022-11-24T05:47:48.393Z,100876.66
2022-11-24T05:50:17.863Z,100875.50
2022-11-24T05:52:45.490Z,100875.53
2022-11-24T05:55:14.977Z,100874.81
2022-11-24T05:57:42.884Z,100873.13
2022-11-24T06:00:11.926Z,100876.63
2022-11-24T06:02:42.080Z,100891.75
2022-11-24T06:05:09.518Z,100890.06
2022-11-24T06:07:36.968Z,100900.81
2022-11-24T06:10:04.881Z,100896.69
2022-11-24T06:12:32.146Z,100888.63
2022-11-24T06:14:59.453Z,100892.88
2022-11-24T06:17:27.135Z,100897.28
2022-11-24T06:19:54.409Z,100898.56
2022-11-24T06:22:21.922Z,100904.75
2022-11-24T06:24:50.631Z,100910.28
2022-11-24T06:27:18.921Z,100914.78
2022-11-24T06:29:46.224Z,100917.75
2022-11-24T06:32:13.962Z,100916.78
2022-11-24T06:34:42.463Z,100918.22
2022-11-24T06:37:10.354Z,100912.00
2022-11-24T06:39:37.623Z,100923.03
2022-11-24T06:42:05.442Z,100926.00
2022-11-24T06:44:32.962Z,100918.19
2022-11-24T06:47:00.703Z,100926.69
2022-11-24T06:53:10.188Z,100939.88
2022-11-24T06:55:37.573Z,100945.31
2022-11-24T06:58:05.479Z,100954.25
2022-11-24T07:00:33.003Z,100969.66
2022-11-24T07:03:00.844Z,100971.78
2022-11-24T07:05:28.279Z,100967.03
2022-11-24T07:07:55.778Z,100979.06
2022-11-24T07:10:23.115Z,100973.69
2022-11-24T07:12:52.487Z,100975.47
2022-11-24T07:15:19.855Z,100980.16
2022-11-24T07:17:47.683Z,100987.88
2022-11-24T07:20:15.103Z,100994.69
2022-11-24T07:22:42.852Z,100994.38
2022-11-24T07:25:10.834Z,100991.84
2022-11-24T07:27:38.125Z,101001.41
2022-11-24T07:30:05.975Z,101014.19
2022-11-24T07:32:33.354Z,101021.69
2022-11-24T07:35:01.202Z,101020.16
2022-11-24T07:37:31.593Z,101023.91
2022-11-24T07:39:59.850Z,101033.84
2022-11-24T07:42:27.678Z,101030.47
2022-11-24T07:44:55.453Z,101025.88
2022-11-24T07:47:23.115Z,101028.53
2022-11-24T07:49:50.768Z,101037.47
2022-11-24T07:52:18.202Z,101042.22
2022-11-24T07:54:45.980Z,101042.78
2022-11-24T07:57:13.374Z,101056.28
2022-11-24T07:59:41.130Z,101052.66
2022-11-24T08:02:12.058Z,101044.00
2022-11-24T08:04:39.649Z,101047.53
2022-11-24T08:07:07.414Z,101048.59
2022-11-24T08:09:35.640Z,101050.06
2022-11-24T08:12:03.377Z,101049.75
2022-11-24T08:14:30.788Z,101071.78
2022-11-24T08:17:18.508Z,101064.47
2022-11-24T08:19:45.803Z,101074.03
2022-11-24T08:22:13.056Z,101070.25
2022-11-24T08:24:46.371Z,101068.31
2022-11-24T08:27:15.753Z,101064.06
2022-11-24T08:29:44.157Z,101072.31
2022-11-24T08:32:17.422Z,101068.78
2022-11-24T08:34:48.072Z,101069.25
2022-11-24T08:37:15.371Z,101061.31
2022-11-24T08:39:42.910Z,101061.13
2022-11-24T08:42:10.663Z,101066.00
2022-11-24T08:44:38.094Z,101063.19
2022-11-24T08:47:05.476Z,101069.66
2022-11-24T08:49:32.755Z,101071.38
2022-11-24T08:52:00.426Z,101060.41
2022-11-24T08:54:28.050Z,101052.59
2022-11-24T08:56:55.683Z,101057.88
2022-11-24T08:59:23.677Z,101065.44
2022-11-24T09:01:50.994Z,101069.47
2022-11-24T09:04:18.375Z,101073.75
2022-11-24T09:06:45.624Z,101089.00
2022-11-24T09:09:14.164Z,101086.69
2022-11-24T09:11:42.180Z,101074.19
2022-11-24T09:14:09.467Z,101059.25
2022-11-24T09:16:36.894Z,101052.66
2022-11-24T09:19:06.147Z,101060.47
2022-11-24T09:21:37.662Z,101066.06
2022-11-24T09:24:07.463Z,101074.72
2022-11-24T09:26:37.233Z,101066.09
2022-11-24T09:29:06.286Z,101074.59
2022-11-24T09:31:36.342Z,101073.41
2022-11-24T09:34:06.969Z,101075.81
2022-11-24T09:36:35.662Z,101077.31
2022-11-24T09:39:04.250Z,101081.56
2022-11-24T09:41:57.590Z,101085.56
2022-11-24T09:47:37.886Z,101097.13
2022-11-24T09:50:26.186Z,101102.88
2022-11-24T09:53:03.878Z,101113.47
2022-11-24T09:55:45.086Z,101119.75
2022-11-24T09:58:19.534Z,101116.13
2022-11-24T10:00:50.550Z,101124.75
2022-11-24T10:03:28.198Z,101112.09
2022-11-24T10:05:55.983Z,101117.94
2022-11-24T10:08:38.935Z,101113.56
2022-11-24T10:11:13.581Z,101112.09
2022-11-24T10:13:50.064Z,101113.19
2022-11-24T10:16:23.571Z,101115.09
2022-11-24T10:19:22.566Z,101107.16
2022-11-24T10:22:26.166Z,101114.91
2022-11-24T10:25:08.798Z,101108.84
2022-11-24T10:28:02.146Z,101106.84
2022-11-24T10:30:30.635Z,101100.25
2022-11-24T10:33:08.153Z,101094.72
2022-11-24T10:35:39.678Z,101095.06
2022-11-24T10:38:45.267Z,101085.88
2022-11-24T10:41:46.941Z,101095.72
2022-11-24T10:44:15.029Z,101107.56
2022-11-24T10:46:43.793Z,101109.56
2022-11-24T10:49:20.622Z,101106.00
2022-11-24T10:52:01.287Z,101101.59
2022-11-24T10:54:29.298Z,101087.06
2022-11-24T10:56:56.629Z,101096.94
2022-11-24T10:59:38.729Z,101096.50
2022-11-24T11:02:34.826Z,101097.19
2022-11-24T11:05:44.675Z,101103.16
2022-11-24T11:08:14.837Z,101106.09
2022-11-24T11:10:44.039Z,101083.28
2022-11-24T11:13:58.202Z,101082.38
2022-11-24T11:16:53.470Z,101083.91
2022-11-24T11:19:48.966Z,101083.69
2022-11-24T11:22:27.038Z,101084.63
2022-11-24T11:25:30.061Z,101082.59
2022-11-24T11:28:56.213Z,101074.25
2022-11-24T11:31:24.608Z,101077.53
2022-11-24T11:34:25.219Z,101075.28
2022-11-24T11:36:59.946Z,101077.41
2022-11-24T11:39:32.407Z,101083.13
2022-11-24T11:42:53.890Z,101077.97
2022-11-24T11:45:17.407Z,101075.38
2022-11-24T11:47:47.190Z,101079.25
2022-11-24T11:50:18.121Z,101074.50
2022-11-24T11:52:54.602Z,101074.03
2022-11-24T11:55:43.954Z,101066.47
2022-11-24T11:58:32.779Z,101079.28
2022-11-24T12:01:04.272Z,101082.50
2022-11-24T12:03:42.618Z,101088.84
2022-11-24T12:06:32.010Z,101092.50
2022-11-24T12:09:20.992Z,101089.13
2022-11-24T12:12:00.820Z,101079.69
2022-11-24T12:14:39.303Z,101079.97
2022-11-24T12:17:13.498Z,101079.59
2022-11-24T12:19:53.539Z,101084.44
2022-11-24T12:22:20.802Z,101077.06
2022-11-24T12:25:26.625Z,101079.25
2022-11-24T12:28:14.679Z,101073.91
2022-11-24T12:31:05.928Z,101066.31
2022-11-24T12:34:10.141Z,101059.69
2022-11-24T12:36:56.049Z,101055.88
2022-11-24T12:39:52.533Z,101053.44
2022-11-24T12:42:45.542Z,101064.59
2022-11-24T12:45:16.825Z,101055.78
2022-11-24T12:48:05.799Z,101054.16
2022-11-24T12:50:38.736Z,101055.22
2022-11-24T12:53:12.038Z,101055.44
2022-11-24T12:55:41.170Z,101060.91
2022-11-24T12:58:26.033Z,101069.25
2022-11-24T13:01:29.841Z,101067.44
2022-11-24T13:04:38.013Z,101072.44
2022-11-24T13:07:20.548Z,101069.53
2022-11-24T13:10:46.617Z,101068.69
2022-11-24T13:13:16.792Z,101062.16
2022-11-24T13:19:02.553Z,101058.44
2022-11-24T13:21:51.628Z,101056.94
2022-11-24T13:24:19.971Z,101054.63
2022-11-24T13:26:49.063Z,101049.53
2022-11-24T13:29:28.584Z,101051.50
2022-11-24T13:32:17.560Z,101048.31
2022-11-24T13:38:44.537Z,101054.69
2022-11-24T13:41:33.096Z,101062.84
2022-11-24T13:44:15.328Z,101056.28
2022-11-24T13:47:06.043Z,101054.78
2022-11-24T13:49:42.535Z,101051.56
2022-11-24T13:52:34.742Z,101044.81
2022-11-24T13:55:21.425Z,101045.69
2022-11-24T13:57:50.594Z,101043.16
2022-11-24T14:00:27.778Z,101046.31
2022-11-24T14:03:01.160Z,101036.50
2022-11-24T14:05:38.476Z,101030.34
2022-11-24T14:08:13.888Z,101039.75
2022-11-24T14:10:41.515Z,101034.34
2022-11-24T14:13:26.014Z,101038.53
2022-11-24T14:16:15.399Z,101038.13
2022-11-24T14:18:45.640Z,101041.06
2022-11-24T14:21:22.942Z,101045.63
2022-11-24T14:24:14.807Z,101036.00
2022-11-24T14:26:46.102Z,101042.28
2022-11-24T14:29:20.433Z,101042.22
2022-11-24T14:32:06.084Z,101043.47
2022-11-24T14:34:36.519Z,101049.78
2022-11-24T14:37:03.973Z,101050.16
2022-11-24T14:39:41.487Z,101048.88
2022-11-24T14:42:27.332Z,101051.16
2022-11-24T14:45:03.782Z,101054.91
2022-11-24T14:47:55.683Z,101048.41
2022-11-24T14:50:23.617Z,101052.72
2022-11-24T14:52:56.719Z,101054.41
2022-11-24T14:55:25.824Z,101053.66
2022-11-24T14:57:54.360Z,101056.13
2022-11-24T15:00:24.707Z,101060.00
2022-11-24T15:03:13.470Z,101067.25
2022-11-24T15:05:59.425Z,101065.97
2022-11-24T15:08:37.266Z,101063.84
2022-11-24T15:11:06.936Z,101059.03
2022-11-24T15:13:39.850Z,101065.84
2022-11-24T15:19:06.764Z,101064.50
2022-11-24T15:21:36.940Z,101058.84
2022-11-24T15:24:06.610Z,101071.88
2022-11-24T15:26:38.505Z,101078.28
2022-11-24T15:29:07.519Z,101083.59
2022-11-24T15:31:35.050Z,101090.19
2022-11-24T15:34:02.420Z,101095.53
2022-11-24T15:36:29.707Z,101095.94
2022-11-24T15:38:57.519Z,101098.94
2022-11-24T15:41:30.480Z,101096.28
2022-11-24T15:44:37.948Z,101103.84
2022-11-24T15:47:05.356Z,101104.75
2022-11-24T15:49:32.627Z,101110.47
2022-11-24T15:52:00.119Z,101114.09
2022-11-24T15:54:29.532Z,101110.94
2022-11-24T15:56:56.930Z,101109.22
2022-11-24T15:59:24.162Z,101113.50
2022-11-24T16:01:51.980Z,101123.78
2022-11-24T16:04:19.420Z,101124.13
2022-11-24T16:06:46.772Z,101128.09
2022-11-24T16:09:16.029Z,101134.00
2022-11-24T16:11:43.303Z,101117.56
2022-11-24T16:14:10.723Z,101131.97
2022-11-24T16:16:40.630Z,101124.00
2022-11-24T16:19:09.756Z,101125.53
2022-11-24T16:21:37.660Z,101118.09
2022-11-24T16:24:25.066Z,101112.16
2022-11-24T16:26:52.768Z,101123.66
2022-11-24T16:29:23.643Z,101114.25
2022-11-24T16:31:54.350Z,101118.69
2022-11-24T16:34:21.738Z,101123.09
2022-11-24T16:36:49.385Z,101135.94
2022-11-24T16:39:16.681Z,101136.47
2022-11-24T16:41:44.003Z,101142.41
2022-11-24T16:44:11.310Z,101154.94
2022-11-24T16:46:39.406Z,101161.06
2022-11-24T16:49:08.874Z,101164.47
2022-11-24T16:51:36.456Z,101167.69
2022-11-24T16:54:23.956Z,101180.56
2022-11-24T16:56:51.931Z,101172.97
2022-11-24T16:59:19.738Z,101177.00
2022-11-24T17:01:50.497Z,101172.25
2022-11-24T17:04:18.086Z,101183.97
2022-11-24T17:06:46.565Z,101186.16
2022-11-24T17:09:13.854Z,101193.94
2022-11-24T17:11:41.226Z,101192.06
2022-11-24T17:14:10.398Z,101206.78
2022-11-24T17:16:38.592Z,101203.38
2022-11-24T17:19:06.394Z,101209.81
2022-11-24T17:21:33.722Z,101210.84
2022-11-24T17:24:05.341Z,101213.34
2022-11-24T17:26:35.178Z,101216.91
2022-11-24T17:29:02.927Z,101216.72
2022-11-24T17:31:32.989Z,101224.50
2022-11-24T17:34:00.518Z,101220.44
2022-11-24T17:36:30.459Z,101222.47
2022-11-24T17:39:00.099Z,101232.97
2022-11-24T17:41:27.930Z,101223.84
2022-11-24T17:43:56.630Z,101223.34
2022-11-24T17:46:25.058Z,101219.59
2022-11-24T17:48:52.779Z,101220.59
2022-11-24T17:51:22.399Z,101219.09
2022-11-24T17:53:52.040Z,101227.22
2022-11-24T17:56:25.048Z,101233.47
2022-11-24T17:58:57.843Z,101242.06
2022-11-24T18:01:28.355Z,101242.09
2022-11-24T18:03:55.919Z,101246.75
2022-11-24T18:06:26.125Z,101250.50
2022-11-24T18:08:55.243Z,101242.56
2022-11-24T18:11:31.459Z,101252.97
2022-11-24T18:14:02.642Z,101244.53
2022-11-24T18:16:35.228Z,101236.72
2022-11-24T18:19:09.780Z,101240.19
2022-11-24T18:21:41.653Z,101238.06
2022-11-24T18:24:11.108Z,101233.22
2022-11-24T18:26:40.182Z,101242.09
2022-11-24T18:29:08.017Z,101242.38
2022-11-24T18:31:36.657Z,101251.16
2022-11-24T18:34:05.966Z,101256.91
2022-11-24T18:36:35.039Z,101266.41
2022-11-24T18:39:04.889Z,101268.72
2022-11-24T18:41:32.679Z,101271.38
2022-11-24T18:44:03.068Z,101276.94
2022-11-24T18:46:30.568Z,101278.22
2022-11-24T18:48:57.904Z,101282.16
2022-11-24T18:51:25.453Z,101271.38
2022-11-24T18:53:59.986Z,101283.78
2022-11-24T18:56:27.597Z,101284.53
2022-11-24T18:58:56.992Z,101281.38
2022-11-24T19:01:27.203Z,101283.94
2022-11-24T19:03:56.971Z,101291.56
2022-11-24T19:06:35.611Z,101290.78
2022-11-24T19:09:08.194Z,101286.84
2022-11-24T19:11:38.105Z,101283.97
2022-11-24T19:14:08.268Z,101288.09
2022-11-24T19:16:36.332Z,101283.31
2022-11-24T19:19:04.466Z,101274.91
2022-11-24T19:21:33.847Z,101286.41
2022-11-24T19:24:04.865Z,101291.59
2022-11-24T19:26:35.085Z,101294.44
2022-11-24T19:29:03.782Z,101302.28
2022-11-24T19:31:31.357Z,101296.22
2022-11-24T19:33:59.865Z,101301.84
2022-11-24T19:36:27.730Z,101304.44
2022-11-24T19:38:57.199Z,101313.53
2022-11-24T19:41:30.199Z,101327.81
2022-11-24T19:43:58.730Z,101322.97
2022-11-24T19:46:30.037Z,101319.53
2022-11-24T19:49:02.245Z,101315.84
2022-11-24T19:51:31.851Z,101312.75
2022-11-24T19:54:01.541Z,101312.97
2022-11-24T19:56:31.780Z,101318.69
2022-11-24T19:58:59.656Z,101320.09
2022-11-24T20:01:29.644Z,101328.72
2022-11-24T20:03:59.572Z,101322.19
2022-11-24T20:06:29.014Z,101324.19
2022-11-24T20:09:17.979Z,101329.88
2022-11-24T20:11:46.247Z,101332.94
2022-11-24T20:14:15.074Z,101327.16
2022-11-24T20:16:42.414Z,101319.06
2022-11-24T20:19:11.871Z,101321.09
2022-11-24T20:21:41.480Z,101322.97
2022-11-24T20:24:13.144Z,101324.56
2022-11-24T20:26:44.341Z,101328.16
2022-11-24T20:29:13.795Z,101329.44
2022-11-24T20:31:47.358Z,101333.66
2022-11-24T20:34:16.199Z,101336.63
2022-11-24T20:36:45.233Z,101337.00
2022-11-24T20:39:16.290Z,101338.19
2022-11-24T20:42:03.935Z,101339.44
2022-11-24T20:44:31.753Z,101341.31
2022-11-24T20:47:00.269Z,101338.56
2022-11-24T20:49:28.271Z,101351.19
2022-11-24T20:51:57.092Z,101346.66
2022-11-24T20:54:24.603Z,101346.16
2022-11-24T20:56:51.927Z,101345.84
2022-11-24T20:59:23.099Z,101343.25
2022-11-24T21:01:51.699Z,101348.09
2022-11-24T21:04:22.581Z,101352.47
2022-11-24T21:06:49.938Z,101353.44
2022-11-24T21:09:18.369Z,101356.00
2022-11-24T21:11:46.055Z,101359.34
2022-11-24T21:14:14.433Z,101367.00
2022-11-24T21:16:42.804Z,101373.75
2022-11-24T21:19:13.803Z,101371.19
2022-11-24T21:21:42.922Z,101382.66
2022-11-24T21:24:18.514Z,101385.03
2022-11-24T21:26:50.418Z,101390.13
2022-11-24T21:29:19.519Z,101383.91
2022-11-24T21:31:47.127Z,101395.84
2022-11-24T21:34:16.663Z,101390.81
2022-11-24T21:36:45.165Z,101388.50
2022-11-24T21:42:35.247Z,101389.94
2022-11-24T21:45:02.600Z,101385.78
2022-11-24T21:47:31.405Z,101389.38
2022-11-24T21:49:59.146Z,101390.50
2022-11-24T21:52:26.841Z,101390.38
2022-11-24T21:54:54.079Z,101388.53
2022-11-24T21:57:23.031Z,101379.63
2022-11-24T21:59:50.754Z,101385.81
2022-11-24T22:02:18.198Z,101374.41
2022-11-24T22:04:45.958Z,101375.59
2022-11-24T22:07:14.405Z,101378.59
2022-11-24T22:09:42.258Z,101374.13
2022-11-24T22:12:09.618Z,101382.22
2022-11-24T22:14:40.314Z,101383.56
2022-11-24T22:17:08.542Z,101387.44
2022-11-24T22:19:36.298Z,101388.00
2022-11-24T22:22:03.614Z,101389.16
2022-11-24T22:24:30.912Z,101388.53
2022-11-24T22:26:58.183Z,101394.72
2022-11-24T22:29:25.623Z,101394.28
2022-11-24T22:31:53.298Z,101382.06
2022-11-24T22:34:20.615Z,101380.34
2022-11-24T22:36:48.261Z,101373.75
2022-11-24T22:42:37.131Z,101366.03
2022-11-24T22:45:24.665Z,101367.44
2022-11-24T22:47:55.500Z,101372.84
2022-11-24T22:50:22.831Z,101381.53
2022-11-24T22:52:51.339Z,101375.94
2022-11-24T22:55:19.367Z,101375.94
2022-11-24T22:57:48.420Z,101369.94
2022-11-24T23:00:16.604Z,101376.00
